sensor_id;sensor_type;location;lat;lon;timestamp;temperature;humidity
23089;DHT22;11713;48.506;8.966;2023-02-13T00:01:10;1.10;99.90
23089;DHT22;11713;48.506;8.966;2023-02-13T00:03:35;1.10;99.90
23089;DHT22;11713;48.506;8.966;2023-02-13T00:06:01;1.10;99.90
23089;DHT22;11713;48.506;8.966;2023-02-13T00:08:27;1.20;99.90
23089;DHT22;11713;48.506;8.966;2023-02-13T00:10:53;1.20;99.90
23089;DHT22;11713;48.506;8.966;2023-02-13T00:13:18;1.20;99.90
23089;DHT22;11713;48.506;8.966;2023-02-13T00:15:44;1.20;99.90
23089;DHT22;11713;48.506;8.966;2023-02-13T00:18:10;1.20;99.90
23089;DHT22;11713;48.506;8.966;2023-02-13T00:20:36;1.20;99.90
23089;DHT22;11713;48.506;8.966;2023-02-13T00:23:02;1.30;99.90
23089;DHT22;11713;48.506;8.966;2023-02-13T00:25:28;1.30;99.90
23089;DHT22;11713;48.506;8.966;2023-02-13T00:27:54;1.30;99.90
23089;DHT22;11713;48.506;8.966;2023-02-13T00:30:20;1.30;99.90
23089;DHT22;11713;48.506;8.966;2023-02-13T00:32:46;1.30;99.90
23089;DHT22;11713;48.506;8.966;2023-02-13T00:35:12;1.30;99.90
23089;DHT22;11713;48.506;8.966;2023-02-13T00:37:38;1.30;99.90
23089;DHT22;11713;48.506;8.966;2023-02-13T00:40:04;1.20;99.90
23089;DHT22;11713;48.506;8.966;2023-02-13T00:42:30;1.20;99.90
23089;DHT22;11713;48.506;8.966;2023-02-13T00:44:55;1.20;99.90
23089;DHT22;11713;48.506;8.966;2023-02-13T00:47:22;1.20;99.90
23089;DHT22;11713;48.506;8.966;2023-02-13T00:49:48;1.20;99.90
23089;DHT22;11713;48.506;8.966;2023-02-13T00:52:14;1.20;99.90
23089;DHT22;11713;48.506;8.966;2023-02-13T00:54:40;1.20;99.90
23089;DHT22;11713;48.506;8.966;2023-02-13T00:57:06;1.20;99.90
23089;DHT22;11713;48.506;8.966;2023-02-13T00:59:31;1.10;99.90
23089;DHT22;11713;48.506;8.966;2023-02-13T01:01:59;1.10;99.90
23089;DHT22;11713;48.506;8.966;2023-02-13T01:04:25;1.10;99.90
23089;DHT22;11713;48.506;8.966;2023-02-13T01:06:50;1.10;99.90
23089;DHT22;11713;48.506;8.966;2023-02-13T01:09:16;1.10;99.90
23089;DHT22;11713;48.506;8.966;2023-02-13T01:11:42;1.10;99.90
23089;DHT22;11713;48.506;8.966;2023-02-13T01:14:08;1.00;99.90
23089;DHT22;11713;48.506;8.966;2023-02-13T01:16:33;0.80;99.90
23089;DHT22;11713;48.506;8.966;2023-02-13T01:18:59;0.60;99.90
23089;DHT22;11713;48.506;8.966;2023-02-13T01:21:25;0.60;99.90
23089;DHT22;11713;48.506;8.966;2023-02-13T01:23:52;0.50;99.90
23089;DHT22;11713;48.506;8.966;2023-02-13T01:26:21;0.50;99.90
23089;DHT22;11713;48.506;8.966;2023-02-13T01:28:52;0.40;99.90
23089;DHT22;11713;48.506;8.966;2023-02-13T01:31:19;0.30;99.90
23089;DHT22;11713;48.506;8.966;2023-02-13T01:33:45;0.30;99.90
23089;DHT22;11713;48.506;8.966;2023-02-13T01:36:12;0.30;99.90
23089;DHT22;11713;48.506;8.966;2023-02-13T01:38:39;0.30;99.90
23089;DHT22;11713;48.506;8.966;2023-02-13T01:41:06;0.40;99.90
23089;DHT22;11713;48.506;8.966;2023-02-13T01:44:01;0.40;99.90
23089;DHT22;11713;48.506;8.966;2023-02-13T01:46:40;0.40;99.90
23089;DHT22;11713;48.506;8.966;2023-02-13T01:49:11;0.40;99.90
23089;DHT22;11713;48.506;8.966;2023-02-13T01:51:39;0.50;99.90
23089;DHT22;11713;48.506;8.966;2023-02-13T01:54:26;0.50;99.90
23089;DHT22;11713;48.506;8.966;2023-02-13T01:57:03;0.50;99.90
23089;DHT22;11713;48.506;8.966;2023-02-13T01:59:48;0.50;99.90
23089;DHT22;11713;48.506;8.966;2023-02-13T02:02:15;0.50;99.90
23089;DHT22;11713;48.506;8.966;2023-02-13T02:04:41;0.50;99.90
23089;DHT22;11713;48.506;8.966;2023-02-13T02:07:19;0.50;99.90
23089;DHT22;11713;48.506;8.966;2023-02-13T02:09:48;0.50;99.90
23089;DHT22;11713;48.506;8.966;2023-02-13T02:12:30;0.50;99.90
23089;DHT22;11713;48.506;8.966;2023-02-13T02:14:58;0.60;99.90
23089;DHT22;11713;48.506;8.966;2023-02-13T02:17:29;0.60;99.90
23089;DHT22;11713;48.506;8.966;2023-02-13T02:34:40;-0.20;99.90
23089;DHT22;11713;48.506;8.966;2023-02-13T02:40:11;-0.30;99.90
23089;DHT22;11713;48.506;8.966;2023-02-13T02:45:20;-0.50;99.90
23089;DHT22;11713;48.506;8.966;2023-02-13T02:51:28;-0.50;99.90
23089;DHT22;11713;48.506;8.966;2023-02-13T02:57:32;-0.50;99.90
23089;DHT22;11713;48.506;8.966;2023-02-13T03:00:21;-0.60;99.90
23089;DHT22;11713;48.506;8.966;2023-02-13T03:03:22;-0.60;99.90
23089;DHT22;11713;48.506;8.966;2023-02-13T03:06:18;-0.60;99.90
23089;DHT22;11713;48.506;8.966;2023-02-13T03:08:53;-0.60;99.90
23089;DHT22;11713;48.506;8.966;2023-02-13T03:11:41;-0.60;99.90
23089;DHT22;11713;48.506;8.966;2023-02-13T03:14:27;-0.70;99.90
23089;DHT22;11713;48.506;8.966;2023-02-13T03:16:54;-0.80;99.90
23089;DHT22;11713;48.506;8.966;2023-02-13T03:23:01;-0.80;99.90
23089;DHT22;11713;48.506;8.966;2023-02-13T03:31:51;-0.80;99.90
23089;DHT22;11713;48.506;8.966;2023-02-13T03:34:37;-0.70;99.90
23089;DHT22;11713;48.506;8.966;2023-02-13T03:37:29;-0.70;99.90
23089;DHT22;11713;48.506;8.966;2023-02-13T03:40:22;-0.60;99.90
23089;DHT22;11713;48.506;8.966;2023-02-13T03:45:23;-0.60;99.90
23089;DHT22;11713;48.506;8.966;2023-02-13T03:48:09;-0.70;99.90
23089;DHT22;11713;48.506;8.966;2023-02-13T03:50:58;-0.70;99.90
23089;DHT22;11713;48.506;8.966;2023-02-13T03:53:27;-0.80;99.90
23089;DHT22;11713;48.506;8.966;2023-02-13T03:55:55;-0.80;99.90
23089;DHT22;11713;48.506;8.966;2023-02-13T03:58:43;-0.80;99.90
23089;DHT22;11713;48.506;8.966;2023-02-13T04:01:31;-0.80;99.90
23089;DHT22;11713;48.506;8.966;2023-02-13T04:04:11;-0.70;99.90
23089;DHT22;11713;48.506;8.966;2023-02-13T04:09:13;-0.80;99.90
23089;DHT22;11713;48.506;8.966;2023-02-13T04:12:25;-0.80;99.90
23089;DHT22;11713;48.506;8.966;2023-02-13T04:14:57;-0.80;99.90
23089;DHT22;11713;48.506;8.966;2023-02-13T04:17:30;-0.90;99.90
23089;DHT22;11713;48.506;8.966;2023-02-13T04:19:58;-0.80;99.90
23089;DHT22;11713;48.506;8.966;2023-02-13T04:22:24;-0.80;99.90
23089;DHT22;11713;48.506;8.966;2023-02-13T04:24:50;-0.80;99.90
23089;DHT22;11713;48.506;8.966;2023-02-13T04:27:16;-0.90;99.90
23089;DHT22;11713;48.506;8.966;2023-02-13T04:29:42;-0.90;99.90
23089;DHT22;11713;48.506;8.966;2023-02-13T04:32:09;-1.00;99.90
23089;DHT22;11713;48.506;8.966;2023-02-13T04:34:36;-1.10;99.90
23089;DHT22;11713;48.506;8.966;2023-02-13T04:37:02;-1.10;99.90
23089;DHT22;11713;48.506;8.966;2023-02-13T04:39:27;-1.20;99.90
23089;DHT22;11713;48.506;8.966;2023-02-13T04:41:54;-1.20;99.90
23089;DHT22;11713;48.506;8.966;2023-02-13T04:44:22;-1.40;99.90
23089;DHT22;11713;48.506;8.966;2023-02-13T04:46:48;-1.40;99.90
23089;DHT22;11713;48.506;8.966;2023-02-13T04:49:15;-1.30;99.90
23089;DHT22;11713;48.506;8.966;2023-02-13T04:51:46;-1.40;99.90
23089;DHT22;11713;48.506;8.966;2023-02-13T04:54:14;-1.40;99.90
23089;DHT22;11713;48.506;8.966;2023-02-13T04:56:43;-1.40;99.90
23089;DHT22;11713;48.506;8.966;2023-02-13T04:59:10;-1.30;99.90
23089;DHT22;11713;48.506;8.966;2023-02-13T05:01:36;-1.40;99.90
23089;DHT22;11713;48.506;8.966;2023-02-13T05:04:02;-1.40;99.90
23089;DHT22;11713;48.506;8.966;2023-02-13T05:06:28;-1.40;99.90
23089;DHT22;11713;48.506;8.966;2023-02-13T05:08:53;-1.40;99.90
23089;DHT22;11713;48.506;8.966;2023-02-13T05:11:19;-1.40;99.90
23089;DHT22;11713;48.506;8.966;2023-02-13T05:13:45;-1.40;99.90
23089;DHT22;11713;48.506;8.966;2023-02-13T05:16:11;-1.40;99.90
23089;DHT22;11713;48.506;8.966;2023-02-13T05:18:36;-1.40;99.90
23089;DHT22;11713;48.506;8.966;2023-02-13T05:21:02;-1.40;99.90
23089;DHT22;11713;48.506;8.966;2023-02-13T05:23:48;-1.50;99.90
23089;DHT22;11713;48.506;8.966;2023-02-13T05:26:15;-1.50;99.90
23089;DHT22;11713;48.506;8.966;2023-02-13T05:28:41;-1.50;99.90
23089;DHT22;11713;48.506;8.966;2023-02-13T05:31:25;-1.50;99.90
23089;DHT22;11713;48.506;8.966;2023-02-13T05:33:51;-1.60;99.90
23089;DHT22;11713;48.506;8.966;2023-02-13T05:36:17;-1.60;99.90
23089;DHT22;11713;48.506;8.966;2023-02-13T05:38:43;-1.60;99.90
23089;DHT22;11713;48.506;8.966;2023-02-13T05:41:08;-1.60;99.90
23089;DHT22;11713;48.506;8.966;2023-02-13T05:43:34;-1.60;99.90
23089;DHT22;11713;48.506;8.966;2023-02-13T05:46:08;-1.60;99.90
23089;DHT22;11713;48.506;8.966;2023-02-13T05:48:34;-1.60;99.90
23089;DHT22;11713;48.506;8.966;2023-02-13T05:51:00;-1.60;99.90
23089;DHT22;11713;48.506;8.966;2023-02-13T05:53:26;-1.60;99.90
23089;DHT22;11713;48.506;8.966;2023-02-13T05:55:54;-1.50;99.90
23089;DHT22;11713;48.506;8.966;2023-02-13T05:58:20;-1.50;99.90
23089;DHT22;11713;48.506;8.966;2023-02-13T06:00:47;-1.40;99.90
23089;DHT22;11713;48.506;8.966;2023-02-13T06:03:13;-1.40;99.90
23089;DHT22;11713;48.506;8.966;2023-02-13T06:05:39;-1.30;99.90
23089;DHT22;11713;48.506;8.966;2023-02-13T06:08:05;-1.40;99.90
23089;DHT22;11713;48.506;8.966;2023-02-13T06:10:31;-1.40;99.90
23089;DHT22;11713;48.506;8.966;2023-02-13T06:12:57;-1.40;99.90
23089;DHT22;11713;48.506;8.966;2023-02-13T06:15:22;-1.40;99.90
23089;DHT22;11713;48.506;8.966;2023-02-13T06:17:48;-1.40;99.90
23089;DHT22;11713;48.506;8.966;2023-02-13T06:20:14;-1.40;99.90
23089;DHT22;11713;48.506;8.966;2023-02-13T06:22:40;-1.30;99.90
23089;DHT22;11713;48.506;8.966;2023-02-13T06:25:05;-1.30;99.90
23089;DHT22;11713;48.506;8.966;2023-02-13T06:27:31;-1.20;99.90
23089;DHT22;11713;48.506;8.966;2023-02-13T06:29:57;-1.20;99.90
23089;DHT22;11713;48.506;8.966;2023-02-13T06:32:23;-1.20;99.90
23089;DHT22;11713;48.506;8.966;2023-02-13T06:34:48;-1.20;99.90
23089;DHT22;11713;48.506;8.966;2023-02-13T06:37:14;-1.20;99.90
23089;DHT22;11713;48.506;8.966;2023-02-13T06:39:40;-1.20;99.90
23089;DHT22;11713;48.506;8.966;2023-02-13T06:42:07;-1.10;99.90
23089;DHT22;11713;48.506;8.966;2023-02-13T06:44:33;-1.10;99.90
23089;DHT22;11713;48.506;8.966;2023-02-13T06:46:58;-1.10;99.90
23089;DHT22;11713;48.506;8.966;2023-02-13T06:49:24;-1.00;99.90
23089;DHT22;11713;48.506;8.966;2023-02-13T06:51:50;-1.00;99.90
23089;DHT22;11713;48.506;8.966;2023-02-13T06:54:16;-1.00;99.90
23089;DHT22;11713;48.506;8.966;2023-02-13T06:56:41;-1.00;99.90
23089;DHT22;11713;48.506;8.966;2023-02-13T06:59:07;-0.90;99.90
23089;DHT22;11713;48.506;8.966;2023-02-13T07:01:33;-0.90;99.90
23089;DHT22;11713;48.506;8.966;2023-02-13T07:03:59;-0.90;99.90
23089;DHT22;11713;48.506;8.966;2023-02-13T07:06:25;-0.90;99.90
23089;DHT22;11713;48.506;8.966;2023-02-13T07:08:50;-0.80;99.90
23089;DHT22;11713;48.506;8.966;2023-02-13T07:11:21;-0.80;99.90
23089;DHT22;11713;48.506;8.966;2023-02-13T07:13:47;-0.80;99.90
23089;DHT22;11713;48.506;8.966;2023-02-13T07:16:13;-0.80;99.90
23089;DHT22;11713;48.506;8.966;2023-02-13T07:18:39;-0.80;99.90
23089;DHT22;11713;48.506;8.966;2023-02-13T07:21:05;-0.80;99.90
23089;DHT22;11713;48.506;8.966;2023-02-13T07:23:32;-0.80;99.90
23089;DHT22;11713;48.506;8.966;2023-02-13T07:25:59;-0.70;99.90
23089;DHT22;11713;48.506;8.966;2023-02-13T07:28:28;-0.70;99.90
23089;DHT22;11713;48.506;8.966;2023-02-13T07:30:55;-0.60;99.90
23089;DHT22;11713;48.506;8.966;2023-02-13T07:33:21;-0.60;99.90
23089;DHT22;11713;48.506;8.966;2023-02-13T07:35:48;-0.60;99.90
23089;DHT22;11713;48.506;8.966;2023-02-13T07:38:14;-0.50;99.90
23089;DHT22;11713;48.506;8.966;2023-02-13T07:40:40;-0.50;99.90
23089;DHT22;11713;48.506;8.966;2023-02-13T07:43:06;-0.50;99.90
23089;DHT22;11713;48.506;8.966;2023-02-13T07:45:32;-0.50;99.90
23089;DHT22;11713;48.506;8.966;2023-02-13T07:47:58;-0.50;99.90
23089;DHT22;11713;48.506;8.966;2023-02-13T07:50:25;-0.50;99.90
23089;DHT22;11713;48.506;8.966;2023-02-13T07:52:55;-0.40;99.90
23089;DHT22;11713;48.506;8.966;2023-02-13T07:55:21;-0.40;99.90
23089;DHT22;11713;48.506;8.966;2023-02-13T07:57:48;-0.40;99.90
23089;DHT22;11713;48.506;8.966;2023-02-13T08:00:14;-0.30;99.90
23089;DHT22;11713;48.506;8.966;2023-02-13T08:02:40;-0.30;99.90
23089;DHT22;11713;48.506;8.966;2023-02-13T08:05:06;-0.20;99.90
23089;DHT22;11713;48.506;8.966;2023-02-13T08:07:34;-0.20;99.90
23089;DHT22;11713;48.506;8.966;2023-02-13T08:10:00;-0.20;99.90
23089;DHT22;11713;48.506;8.966;2023-02-13T08:12:45;-0.10;99.90
23089;DHT22;11713;48.506;8.966;2023-02-13T08:15:13;-0.10;99.90
23089;DHT22;11713;48.506;8.966;2023-02-13T08:17:39;0.00;99.90
23089;DHT22;11713;48.506;8.966;2023-02-13T08:20:06;0.00;99.90
23089;DHT22;11713;48.506;8.966;2023-02-13T08:22:36;0.00;99.90
23089;DHT22;11713;48.506;8.966;2023-02-13T08:25:03;0.00;99.90
23089;DHT22;11713;48.506;8.966;2023-02-13T08:27:28;0.00;99.90
23089;DHT22;11713;48.506;8.966;2023-02-13T08:29:56;0.00;99.90
23089;DHT22;11713;48.506;8.966;2023-02-13T08:32:23;0.00;99.90
23089;DHT22;11713;48.506;8.966;2023-02-13T08:34:49;0.10;99.90
23089;DHT22;11713;48.506;8.966;2023-02-13T08:37:15;0.10;99.90
23089;DHT22;11713;48.506;8.966;2023-02-13T08:39:41;0.20;99.90
23089;DHT22;11713;48.506;8.966;2023-02-13T08:42:06;0.20;99.90
23089;DHT22;11713;48.506;8.966;2023-02-13T08:44:32;0.20;99.90
23089;DHT22;11713;48.506;8.966;2023-02-13T08:46:58;0.30;99.90
23089;DHT22;11713;48.506;8.966;2023-02-13T08:49:32;0.40;99.90
23089;DHT22;11713;48.506;8.966;2023-02-13T08:51:59;0.40;99.90
23089;DHT22;11713;48.506;8.966;2023-02-13T08:54:25;0.40;99.90
23089;DHT22;11713;48.506;8.966;2023-02-13T08:56:53;0.50;99.90
23089;DHT22;11713;48.506;8.966;2023-02-13T08:59:19;0.50;99.90
23089;DHT22;11713;48.506;8.966;2023-02-13T09:01:45;0.60;99.90
23089;DHT22;11713;48.506;8.966;2023-02-13T09:04:11;0.70;99.90
23089;DHT22;11713;48.506;8.966;2023-02-13T09:06:41;0.70;99.90
23089;DHT22;11713;48.506;8.966;2023-02-13T09:09:07;0.80;99.90
23089;DHT22;11713;48.506;8.966;2023-02-13T09:11:33;0.80;99.90
23089;DHT22;11713;48.506;8.966;2023-02-13T09:13:59;0.90;99.90
23089;DHT22;11713;48.506;8.966;2023-02-13T09:16:25;0.90;99.90
23089;DHT22;11713;48.506;8.966;2023-02-13T09:18:51;1.00;99.90
23089;DHT22;11713;48.506;8.966;2023-02-13T09:21:19;1.00;99.90
23089;DHT22;11713;48.506;8.966;2023-02-13T09:23:45;1.10;99.90
23089;DHT22;11713;48.506;8.966;2023-02-13T09:26:13;1.10;99.90
23089;DHT22;11713;48.506;8.966;2023-02-13T09:28:39;1.20;99.90
23089;DHT22;11713;48.506;8.966;2023-02-13T09:31:10;1.30;99.90
23089;DHT22;11713;48.506;8.966;2023-02-13T09:33:36;1.30;99.90
23089;DHT22;11713;48.506;8.966;2023-02-13T09:36:06;1.40;99.90
23089;DHT22;11713;48.506;8.966;2023-02-13T09:38:32;1.40;99.90
23089;DHT22;11713;48.506;8.966;2023-02-13T09:41:03;1.50;99.90
23089;DHT22;11713;48.506;8.966;2023-02-13T09:46:16;1.70;99.90
23089;DHT22;11713;48.506;8.966;2023-02-13T09:48:47;1.80;99.90
23089;DHT22;11713;48.506;8.966;2023-02-13T09:51:19;1.90;99.90
23089;DHT22;11713;48.506;8.966;2023-02-13T09:53:59;1.90;99.90
23089;DHT22;11713;48.506;8.966;2023-02-13T10:10:50;2.50;99.90
23089;DHT22;11713;48.506;8.966;2023-02-13T10:13:46;2.40;99.90
23089;DHT22;11713;48.506;8.966;2023-02-13T10:16:24;2.30;99.90
23089;DHT22;11713;48.506;8.966;2023-02-13T10:19:01;2.20;99.90
23089;DHT22;11713;48.506;8.966;2023-02-13T10:21:37;2.30;99.90
23089;DHT22;11713;48.506;8.966;2023-02-13T10:24:09;2.40;99.90
23089;DHT22;11713;48.506;8.966;2023-02-13T10:26:39;2.50;99.90
23089;DHT22;11713;48.506;8.966;2023-02-13T10:29:33;2.60;99.90
23089;DHT22;11713;48.506;8.966;2023-02-13T10:32:24;2.70;99.90
23089;DHT22;11713;48.506;8.966;2023-02-13T10:34:53;2.60;99.90
23089;DHT22;11713;48.506;8.966;2023-02-13T10:37:22;2.70;99.90
23089;DHT22;11713;48.506;8.966;2023-02-13T10:39:50;2.80;99.90
23089;DHT22;11713;48.506;8.966;2023-02-13T10:48:18;3.20;99.90
23089;DHT22;11713;48.506;8.966;2023-02-13T10:56:53;3.30;99.90
23089;DHT22;11713;48.506;8.966;2023-02-13T11:04:42;3.90;99.90
23089;DHT22;11713;48.506;8.966;2023-02-13T11:07:13;4.10;99.90
23089;DHT22;11713;48.506;8.966;2023-02-13T11:09:43;4.30;99.90
23089;DHT22;11713;48.506;8.966;2023-02-13T11:12:25;4.30;99.90
23089;DHT22;11713;48.506;8.966;2023-02-13T11:15:02;4.50;99.90
23089;DHT22;11713;48.506;8.966;2023-02-13T11:17:31;4.60;99.90
23089;DHT22;11713;48.506;8.966;2023-02-13T11:20:02;4.70;99.90
23089;DHT22;11713;48.506;8.966;2023-02-13T11:22:35;4.80;99.90
23089;DHT22;11713;48.506;8.966;2023-02-13T11:25:06;4.50;99.90
23089;DHT22;11713;48.506;8.966;2023-02-13T11:27:36;4.20;99.90
23089;DHT22;11713;48.506;8.966;2023-02-13T11:30:10;4.30;99.90
23089;DHT22;11713;48.506;8.966;2023-02-13T11:33:18;4.10;99.90
23089;DHT22;11713;48.506;8.966;2023-02-13T11:35:46;4.10;99.90
23089;DHT22;11713;48.506;8.966;2023-02-13T11:40:47;4.30;99.90
23089;DHT22;11713;48.506;8.966;2023-02-13T11:43:27;4.40;99.90
23089;DHT22;11713;48.506;8.966;2023-02-13T11:46:07;4.40;99.90
23089;DHT22;11713;48.506;8.966;2023-02-13T11:48:33;4.40;99.90
23089;DHT22;11713;48.506;8.966;2023-02-13T11:50:59;4.40;99.90
23089;DHT22;11713;48.506;8.966;2023-02-13T11:53:29;4.50;99.90
23089;DHT22;11713;48.506;8.966;2023-02-13T11:56:09;4.70;99.90
23089;DHT22;11713;48.506;8.966;2023-02-13T11:58:35;4.80;99.90
23089;DHT22;11713;48.506;8.966;2023-02-13T12:06:22;5.30;99.90
23089;DHT22;11713;48.506;8.966;2023-02-13T12:08:48;5.40;99.90
23089;DHT22;11713;48.506;8.966;2023-02-13T12:11:23;5.50;99.90
23089;DHT22;11713;48.506;8.966;2023-02-13T12:13:54;5.70;99.90
23089;DHT22;11713;48.506;8.966;2023-02-13T12:16:38;5.80;99.90
23089;DHT22;11713;48.506;8.966;2023-02-13T12:19:13;6.00;99.90
23089;DHT22;11713;48.506;8.966;2023-02-13T12:22:46;6.10;99.90
23089;DHT22;11713;48.506;8.966;2023-02-13T12:46:29;7.00;99.90
23089;DHT22;11713;48.506;8.966;2023-02-13T12:58:24;7.10;99.90
23089;DHT22;11713;48.506;8.966;2023-02-13T13:03:06;7.60;99.90
23089;DHT22;11713;48.506;8.966;2023-02-13T13:05:41;7.90;99.90
23089;DHT22;11713;48.506;8.966;2023-02-13T13:22:31;8.30;99.90
23089;DHT22;11713;48.506;8.966;2023-02-13T13:25:20;8.50;99.90
23089;DHT22;11713;48.506;8.966;2023-02-13T13:27:51;8.70;99.90
23089;DHT22;11713;48.506;8.966;2023-02-13T13:30:32;8.60;99.90
23089;DHT22;11713;48.506;8.966;2023-02-13T13:33:20;8.60;99.90
23089;DHT22;11713;48.506;8.966;2023-02-13T13:38:34;8.70;99.90
23089;DHT22;11713;48.506;8.966;2023-02-13T14:47:36;10.50;99.90
23089;DHT22;11713;48.506;8.966;2023-02-13T14:50:05;10.40;99.90
23089;DHT22;11713;48.506;8.966;2023-02-13T14:52:36;10.20;99.90
23089;DHT22;11713;48.506;8.966;2023-02-13T14:55:32;10.10;99.90
23089;DHT22;11713;48.506;8.966;2023-02-13T14:58:22;10.10;99.90
23089;DHT22;11713;48.506;8.966;2023-02-13T15:03:49;9.80;99.90
23089;DHT22;11713;48.506;8.966;2023-02-13T15:06:32;9.70;99.90
23089;DHT22;11713;48.506;8.966;2023-02-13T15:09:02;9.80;99.90
23089;DHT22;11713;48.506;8.966;2023-02-13T15:11:38;9.80;99.90
23089;DHT22;11713;48.506;8.966;2023-02-13T15:16:40;10.00;99.90
23089;DHT22;11713;48.506;8.966;2023-02-13T15:19:14;10.00;99.90
23089;DHT22;11713;48.506;8.966;2023-02-13T15:21:50;10.20;99.90
23089;DHT22;11713;48.506;8.966;2023-02-13T15:24:16;10.00;99.90
23089;DHT22;11713;48.506;8.966;2023-02-13T15:26:50;9.90;99.90
23089;DHT22;11713;48.506;8.966;2023-02-13T15:29:19;9.90;99.90
23089;DHT22;11713;48.506;8.966;2023-02-13T15:31:45;9.80;99.90
23089;DHT22;11713;48.506;8.966;2023-02-13T15:34:26;9.70;99.90
23089;DHT22;11713;48.506;8.966;2023-02-13T15:36:53;9.70;99.90
23089;DHT22;11713;48.506;8.966;2023-02-13T15:39:24;9.80;99.90
23089;DHT22;11713;48.506;8.966;2023-02-13T15:42:00;9.70;99.90
23089;DHT22;11713;48.506;8.966;2023-02-13T15:44:37;9.50;99.90
23089;DHT22;11713;48.506;8.966;2023-02-13T15:47:07;9.60;99.90
23089;DHT22;11713;48.506;8.966;2023-02-13T15:49:43;9.60;99.90
23089;DHT22;11713;48.506;8.966;2023-02-13T15:52:20;9.50;99.90
23089;DHT22;11713;48.506;8.966;2023-02-13T15:54:53;9.50;99.90
23089;DHT22;11713;48.506;8.966;2023-02-13T15:57:20;9.50;99.90
23089;DHT22;11713;48.506;8.966;2023-02-13T15:59:46;9.50;99.90
23089;DHT22;11713;48.506;8.966;2023-02-13T16:02:18;9.50;99.90
23089;DHT22;11713;48.506;8.966;2023-02-13T16:04:49;9.50;99.90
23089;DHT22;11713;48.506;8.966;2023-02-13T16:07:16;9.50;99.90
23089;DHT22;11713;48.506;8.966;2023-02-13T16:09:42;9.40;99.90
23089;DHT22;11713;48.506;8.966;2023-02-13T16:12:21;9.40;99.90
23089;DHT22;11713;48.506;8.966;2023-02-13T16:14:57;9.30;99.90
23089;DHT22;11713;48.506;8.966;2023-02-13T16:17:31;9.20;99.90
23089;DHT22;11713;48.506;8.966;2023-02-13T16:22:46;8.90;99.90
23089;DHT22;11713;48.506;8.966;2023-02-13T16:25:32;8.60;99.90
23089;DHT22;11713;48.506;8.966;2023-02-13T16:28:01;8.40;99.90
23089;DHT22;11713;48.506;8.966;2023-02-13T16:35:40;7.80;99.90
23089;DHT22;11713;48.506;8.966;2023-02-13T16:38:32;7.60;99.90
23089;DHT22;11713;48.506;8.966;2023-02-13T16:41:00;7.40;99.90
23089;DHT22;11713;48.506;8.966;2023-02-13T16:43:33;7.20;99.90
23089;DHT22;11713;48.506;8.966;2023-02-13T16:46:39;7.10;99.90
23089;DHT22;11713;48.506;8.966;2023-02-13T16:57:00;6.70;99.90
23089;DHT22;11713;48.506;8.966;2023-02-13T17:02:22;6.50;99.90
23089;DHT22;11713;48.506;8.966;2023-02-13T17:05:31;6.40;99.90
23089;DHT22;11713;48.506;8.966;2023-02-13T17:07:42;6.40;99.90
23089;DHT22;11713;48.506;8.966;2023-02-13T17:12:53;6.20;99.90
23089;DHT22;11713;48.506;8.966;2023-02-13T17:15:23;6.10;99.90
23089;DHT22;11713;48.506;8.966;2023-02-13T17:17:50;5.90;99.90
23089;DHT22;11713;48.506;8.966;2023-02-13T17:20:28;5.80;99.90
23089;DHT22;11713;48.506;8.966;2023-02-13T17:22:57;5.70;99.90
23089;DHT22;11713;48.506;8.966;2023-02-13T17:25:25;5.60;99.90
23089;DHT22;11713;48.506;8.966;2023-02-13T17:27:56;5.50;99.90
23089;DHT22;11713;48.506;8.966;2023-02-13T17:30:25;5.30;99.90
23089;DHT22;11713;48.506;8.966;2023-02-13T17:32:58;5.30;99.90
23089;DHT22;11713;48.506;8.966;2023-02-13T17:35:25;5.20;99.90
23089;DHT22;11713;48.506;8.966;2023-02-13T17:37:51;5.20;99.90
23089;DHT22;11713;48.506;8.966;2023-02-13T17:40:20;5.20;99.90
23089;DHT22;11713;48.506;8.966;2023-02-13T17:42:52;5.10;99.90
23089;DHT22;11713;48.506;8.966;2023-02-13T17:45:20;5.00;99.90
23089;DHT22;11713;48.506;8.966;2023-02-13T17:47:46;4.90;99.90
23089;DHT22;11713;48.506;8.966;2023-02-13T17:50:14;4.80;99.90
23089;DHT22;11713;48.506;8.966;2023-02-13T17:52:42;4.80;99.90
23089;DHT22;11713;48.506;8.966;2023-02-13T17:55:17;4.80;99.90
23089;DHT22;11713;48.506;8.966;2023-02-13T17:57:46;4.80;99.90
23089;DHT22;11713;48.506;8.966;2023-02-13T18:00:13;4.70;99.90
23089;DHT22;11713;48.506;8.966;2023-02-13T18:02:40;4.70;99.90
23089;DHT22;11713;48.506;8.966;2023-02-13T18:05:08;4.70;99.90
23089;DHT22;11713;48.506;8.966;2023-02-13T18:07:34;4.70;99.90
23089;DHT22;11713;48.506;8.966;2023-02-13T18:10:00;4.60;99.90
23089;DHT22;11713;48.506;8.966;2023-02-13T18:12:27;4.60;99.90
23089;DHT22;11713;48.506;8.966;2023-02-13T18:14:53;4.60;99.90
23089;DHT22;11713;48.506;8.966;2023-02-13T18:17:19;4.60;99.90
23089;DHT22;11713;48.506;8.966;2023-02-13T18:19:45;4.40;99.90
23089;DHT22;11713;48.506;8.966;2023-02-13T18:22:11;4.40;99.90
23089;DHT22;11713;48.506;8.966;2023-02-13T18:24:39;4.30;99.90
23089;DHT22;11713;48.506;8.966;2023-02-13T18:27:06;4.20;99.90
23089;DHT22;11713;48.506;8.966;2023-02-13T18:29:33;4.10;99.90
23089;DHT22;11713;48.506;8.966;2023-02-13T18:32:03;4.00;99.90
23089;DHT22;11713;48.506;8.966;2023-02-13T18:34:29;3.90;99.90
23089;DHT22;11713;48.506;8.966;2023-02-13T18:36:55;3.90;99.90
23089;DHT22;11713;48.506;8.966;2023-02-13T18:39:20;3.80;99.90
23089;DHT22;11713;48.506;8.966;2023-02-13T18:41:46;3.80;99.90
23089;DHT22;11713;48.506;8.966;2023-02-13T18:44:12;3.70;99.90
23089;DHT22;11713;48.506;8.966;2023-02-13T18:46:38;3.70;99.90
23089;DHT22;11713;48.506;8.966;2023-02-13T18:49:04;3.70;99.90
23089;DHT22;11713;48.506;8.966;2023-02-13T18:51:30;3.70;99.90
23089;DHT22;11713;48.506;8.966;2023-02-13T18:53:56;3.60;99.90
23089;DHT22;11713;48.506;8.966;2023-02-13T18:56:22;3.50;99.90
23089;DHT22;11713;48.506;8.966;2023-02-13T18:58:49;3.50;99.90
23089;DHT22;11713;48.506;8.966;2023-02-13T19:01:17;3.40;99.90
23089;DHT22;11713;48.506;8.966;2023-02-13T19:03:45;3.40;99.90
23089;DHT22;11713;48.506;8.966;2023-02-13T19:06:14;3.30;99.90
23089;DHT22;11713;48.506;8.966;2023-02-13T19:08:41;3.30;99.90
23089;DHT22;11713;48.506;8.966;2023-02-13T19:11:13;3.20;99.90
23089;DHT22;11713;48.506;8.966;2023-02-13T19:13:43;3.20;99.90
23089;DHT22;11713;48.506;8.966;2023-02-13T19:16:15;3.10;99.90
23089;DHT22;11713;48.506;8.966;2023-02-13T19:18:47;3.20;99.90
23089;DHT22;11713;48.506;8.966;2023-02-13T19:21:14;3.10;99.90
23089;DHT22;11713;48.506;8.966;2023-02-13T19:23:41;3.10;99.90
23089;DHT22;11713;48.506;8.966;2023-02-13T19:26:12;3.00;99.90
23089;DHT22;11713;48.506;8.966;2023-02-13T19:28:38;3.00;99.90
23089;DHT22;11713;48.506;8.966;2023-02-13T19:31:12;3.00;99.90
23089;DHT22;11713;48.506;8.966;2023-02-13T19:33:40;2.90;99.90
23089;DHT22;11713;48.506;8.966;2023-02-13T19:36:08;2.90;99.90
23089;DHT22;11713;48.506;8.966;2023-02-13T19:38:40;2.80;99.90
23089;DHT22;11713;48.506;8.966;2023-02-13T19:41:14;2.70;99.90
23089;DHT22;11713;48.506;8.966;2023-02-13T19:43:44;2.60;99.90
23089;DHT22;11713;48.506;8.966;2023-02-13T19:46:29;2.60;99.90
23089;DHT22;11713;48.506;8.966;2023-02-13T19:48:56;2.60;99.90